<?xml version="1.0" encoding="UTF-8" standalone="no" ?>
<gpx xmlns="http://www.topografix.com/GPX/1/1" xmlns:xsi="http://www.w3.org/2001/XMLSchema-instance" xsi:schemaLocation="http://www.topografix.com/GPX/1/1 http://www.topografix.com/GPX/1/1/gpx.xsd" version="1.1" creator="VisuGPX - https://www.visugpx.com">
  <metadata>
    <name>Suède</name>
  </metadata>
  <trk>
    <name><![CDATA[Tour d'Europe: étape 099]]></name>
    <trkseg>
      <trkpt lat="62.48537" lon="17.32422">
        <ele>57.719946</ele>
        <time>2020-10-05T07:24:32.053Z</time>
      </trkpt>
      <trkpt lat="62.48357" lon="17.32164">
        <ele>73.458935</ele>
        <time>2020-10-05T07:25:34.058Z</time>
      </trkpt>
      <trkpt lat="62.48175" lon="17.31877">
        <ele>66.828842</ele>
        <time>2020-10-05T07:27:18.065Z</time>
      </trkpt>
      <trkpt lat="62.48031" lon="17.31567">
        <ele>71.760009</ele>
        <time>2020-10-05T07:28:32.066Z</time>
      </trkpt>
      <trkpt lat="62.47851" lon="17.31752">
        <ele>65.089508</ele>
        <time>2020-10-05T07:29:36.061Z</time>
      </trkpt>
      <trkpt lat="62.47729" lon="17.31412">
        <ele>52.552088</ele>
        <time>2020-10-05T07:30:49.060Z</time>
      </trkpt>
      <trkpt lat="62.47681" lon="17.31543">
        <ele>47.548056</ele>
        <time>2020-10-05T08:09:15.278Z</time>
      </trkpt>
      <trkpt lat="62.47725" lon="17.31474">
        <ele>48.712297</ele>
        <time>2020-10-05T08:12:52.287Z</time>
      </trkpt>
      <trkpt lat="62.47565" lon="17.31658">
        <ele>48.257705</ele>
        <time>2020-10-05T08:13:32.293Z</time>
      </trkpt>
      <trkpt lat="62.47346" lon="17.31444">
        <ele>39.985821</ele>
        <time>2020-10-05T08:14:12.325Z</time>
      </trkpt>
      <trkpt lat="62.4709" lon="17.31538">
        <ele>40.389182</ele>
        <time>2020-10-05T08:15:01.275Z</time>
      </trkpt>
      <trkpt lat="62.46955" lon="17.31913">
        <ele>44.319885</ele>
        <time>2020-10-05T08:16:12.296Z</time>
      </trkpt>
      <trkpt lat="62.46893" lon="17.32349">
        <ele>43.86882</ele>
        <time>2020-10-05T08:17:01.284Z</time>
      </trkpt>
      <trkpt lat="62.46877" lon="17.32772">
        <ele>48.168108</ele>
        <time>2020-10-05T08:18:45.341Z</time>
      </trkpt>
      <trkpt lat="62.46815" lon="17.33245">
        <ele>43.040205</ele>
        <time>2020-10-05T08:21:44.298Z</time>
      </trkpt>
      <trkpt lat="62.46741" lon="17.33667">
        <ele>42.023342</ele>
        <time>2020-10-05T08:22:33.368Z</time>
      </trkpt>
      <trkpt lat="62.46666" lon="17.34082">
        <ele>50.140379</ele>
        <time>2020-10-05T08:23:53.307Z</time>
      </trkpt>
      <trkpt lat="62.46495" lon="17.34032">
        <ele>59.181641</ele>
        <time>2020-10-05T08:25:30.304Z</time>
      </trkpt>
      <trkpt lat="62.46332" lon="17.34315">
        <ele>63.771693</ele>
        <time>2020-10-05T08:26:54.298Z</time>
      </trkpt>
      <trkpt lat="62.46161" lon="17.34515">
        <ele>67.764199</ele>
        <time>2020-10-05T08:28:34.298Z</time>
      </trkpt>
      <trkpt lat="62.45975" lon="17.34636">
        <ele>71.207158</ele>
        <time>2020-10-05T08:30:09.330Z</time>
      </trkpt>
      <trkpt lat="62.45787" lon="17.34868">
        <ele>71.854192</ele>
        <time>2020-10-05T08:31:01.335Z</time>
      </trkpt>
      <trkpt lat="62.45585" lon="17.34949">
        <ele>78.264679</ele>
        <time>2020-10-05T08:32:43.306Z</time>
      </trkpt>
      <trkpt lat="62.4538" lon="17.34859">
        <ele>74.950364</ele>
        <time>2020-10-05T08:33:55.317Z</time>
      </trkpt>
      <trkpt lat="62.45152" lon="17.34662">
        <ele>60.698918</ele>
        <time>2020-10-05T08:34:40.301Z</time>
      </trkpt>
      <trkpt lat="62.44943" lon="17.3449">
        <ele>61.165799</ele>
        <time>2020-10-05T08:35:36.325Z</time>
      </trkpt>
      <trkpt lat="62.4473" lon="17.34443">
        <ele>60.807508</ele>
        <time>2020-10-05T08:36:23.302Z</time>
      </trkpt>
      <trkpt lat="62.4454" lon="17.34204">
        <ele>49.774051</ele>
        <time>2020-10-05T08:37:06.325Z</time>
      </trkpt>
      <trkpt lat="62.44339" lon="17.34225">
        <ele>52.09126</ele>
        <time>2020-10-05T08:38:16.350Z</time>
      </trkpt>
      <trkpt lat="62.44187" lon="17.34483">
        <ele>52.66822</ele>
        <time>2020-10-05T08:39:13.285Z</time>
      </trkpt>
      <trkpt lat="62.4415" lon="17.34054">
        <ele>60.14654</ele>
        <time>2020-10-05T08:41:14.301Z</time>
      </trkpt>
      <trkpt lat="62.4396" lon="17.33987">
        <ele>71.017813</ele>
        <time>2020-10-05T08:43:03.278Z</time>
      </trkpt>
      <trkpt lat="62.43766" lon="17.34012">
        <ele>87.496336</ele>
        <time>2020-10-05T08:45:03.296Z</time>
      </trkpt>
      <trkpt lat="62.43597" lon="17.34206">
        <ele>93.079565</ele>
        <time>2020-10-05T08:46:52.303Z</time>
      </trkpt>
      <trkpt lat="62.43404" lon="17.34143">
        <ele>100.940657</ele>
        <time>2020-10-05T08:48:49.277Z</time>
      </trkpt>
      <trkpt lat="62.43229" lon="17.34233">
        <ele>109.953774</ele>
        <time>2020-10-05T08:50:37.309Z</time>
      </trkpt>
      <trkpt lat="62.43061" lon="17.34471">
        <ele>111.070126</ele>
        <time>2020-10-05T08:52:10.324Z</time>
      </trkpt>
      <trkpt lat="62.42874" lon="17.34654">
        <ele>113.726782</ele>
        <time>2020-10-05T08:53:14.293Z</time>
      </trkpt>
      <trkpt lat="62.42661" lon="17.34684">
        <ele>114.271648</ele>
        <time>2020-10-05T08:54:10.293Z</time>
      </trkpt>
      <trkpt lat="62.42418" lon="17.34646">
        <ele>102.744901</ele>
        <time>2020-10-05T08:54:52.309Z</time>
      </trkpt>
      <trkpt lat="62.42159" lon="17.345">
        <ele>84.336029</ele>
        <time>2020-10-05T08:55:32.351Z</time>
      </trkpt>
      <trkpt lat="62.41876" lon="17.34345">
        <ele>70.298175</ele>
        <time>2020-10-05T08:56:11.342Z</time>
      </trkpt>
      <trkpt lat="62.41615" lon="17.34211">
        <ele>65.824349</ele>
        <time>2020-10-05T08:56:51.295Z</time>
      </trkpt>
      <trkpt lat="62.41467" lon="17.33954">
        <ele>76.482107</ele>
        <time>2020-10-05T08:58:04.333Z</time>
      </trkpt>
      <trkpt lat="62.4131" lon="17.33617">
        <ele>78.8332</ele>
        <time>2020-10-05T08:59:04.558Z</time>
      </trkpt>
      <trkpt lat="62.41115" lon="17.33357">
        <ele>70.439728</ele>
        <time>2020-10-05T09:00:00.302Z</time>
      </trkpt>
      <trkpt lat="62.40912" lon="17.33456">
        <ele>60.017359</ele>
        <time>2020-10-05T09:00:53.326Z</time>
      </trkpt>
      <trkpt lat="62.40702" lon="17.33598">
        <ele>54.595968</ele>
        <time>2020-10-05T09:01:35.330Z</time>
      </trkpt>
      <trkpt lat="62.405" lon="17.33641">
        <ele>57.491611</ele>
        <time>2020-10-05T09:02:17.297Z</time>
      </trkpt>
      <trkpt lat="62.40258" lon="17.33624">
        <ele>60.238991</ele>
        <time>2020-10-05T09:03:14.298Z</time>
      </trkpt>
      <trkpt lat="62.40052" lon="17.33582">
        <ele>57.350201</ele>
        <time>2020-10-05T09:04:03.292Z</time>
      </trkpt>
      <trkpt lat="62.39844" lon="17.33488">
        <ele>56.354528</ele>
        <time>2020-10-05T09:04:54.298Z</time>
      </trkpt>
      <trkpt lat="62.39667" lon="17.3362">
        <ele>50.08439</ele>
        <time>2020-10-05T09:05:53.305Z</time>
      </trkpt>
      <trkpt lat="62.39439" lon="17.33761">
        <ele>52.480665</ele>
        <time>2020-10-05T09:06:58.357Z</time>
      </trkpt>
      <trkpt lat="62.39241" lon="17.33835">
        <ele>61.222195</ele>
        <time>2020-10-05T09:08:38.296Z</time>
      </trkpt>
      <trkpt lat="62.39046" lon="17.33948">
        <ele>65.18347</ele>
        <time>2020-10-05T09:10:16.303Z</time>
      </trkpt>
      <trkpt lat="62.38854" lon="17.34106">
        <ele>65.933616</ele>
        <time>2020-10-05T09:11:41.305Z</time>
      </trkpt>
      <trkpt lat="62.38656" lon="17.34326">
        <ele>64.093978</ele>
        <time>2020-10-05T09:12:47.318Z</time>
      </trkpt>
      <trkpt lat="62.38467" lon="17.34602">
        <ele>55.341512</ele>
        <time>2020-10-05T09:13:28.303Z</time>
      </trkpt>
      <trkpt lat="62.38271" lon="17.34975">
        <ele>41.738582</ele>
        <time>2020-10-05T09:14:08.336Z</time>
      </trkpt>
      <trkpt lat="62.38178" lon="17.35197">
        <ele>35.908712</ele>
        <time>2020-10-05T09:16:42.347Z</time>
      </trkpt>
      <trkpt lat="62.38276" lon="17.35085">
        <ele>29.792788</ele>
        <time>2020-10-05T09:17:39.284Z</time>
      </trkpt>
      <trkpt lat="62.38174" lon="17.35524">
        <ele>29.201315</ele>
        <time>2020-10-05T09:18:38.315Z</time>
      </trkpt>
      <trkpt lat="62.38016" lon="17.358">
        <ele>35.336833</ele>
        <time>2020-10-05T09:20:04.311Z</time>
      </trkpt>
      <trkpt lat="62.37839" lon="17.36065">
        <ele>36.812011</ele>
        <time>2020-10-05T09:21:12.307Z</time>
      </trkpt>
      <trkpt lat="62.37646" lon="17.36283">
        <ele>33.621868</ele>
        <time>2020-10-05T09:21:57.333Z</time>
      </trkpt>
      <trkpt lat="62.37441" lon="17.36438">
        <ele>39.305868</ele>
        <time>2020-10-05T09:23:04.313Z</time>
      </trkpt>
      <trkpt lat="62.37261" lon="17.3662">
        <ele>46.417542</ele>
        <time>2020-10-05T09:24:48.297Z</time>
      </trkpt>
      <trkpt lat="62.37079" lon="17.36808">
        <ele>47.169271</ele>
        <time>2020-10-05T09:25:56.304Z</time>
      </trkpt>
      <trkpt lat="62.36878" lon="17.36934">
        <ele>47.332626</ele>
        <time>2020-10-05T09:26:55.304Z</time>
      </trkpt>
      <trkpt lat="62.3668" lon="17.3704">
        <ele>52.597341</ele>
        <time>2020-10-05T09:28:00.296Z</time>
      </trkpt>
      <trkpt lat="62.36477" lon="17.37089">
        <ele>45.535762</ele>
        <time>2020-10-05T09:29:01.332Z</time>
      </trkpt>
      <trkpt lat="62.36228" lon="17.36983">
        <ele>40.020514</ele>
        <time>2020-10-05T09:29:52.302Z</time>
      </trkpt>
      <trkpt lat="62.36005" lon="17.36951">
        <ele>43.704767</ele>
        <time>2020-10-05T09:31:02.329Z</time>
      </trkpt>
      <trkpt lat="62.35818" lon="17.36999">
        <ele>47.131434</ele>
        <time>2020-10-05T09:32:45.316Z</time>
      </trkpt>
      <trkpt lat="62.35622" lon="17.36952">
        <ele>57.505043</ele>
        <time>2020-10-05T09:33:51.343Z</time>
      </trkpt>
      <trkpt lat="62.35453" lon="17.36681">
        <ele>60.50562</ele>
        <time>2020-10-05T09:35:06.322Z</time>
      </trkpt>
      <trkpt lat="62.35241" lon="17.36607">
        <ele>52.425372</ele>
        <time>2020-10-05T09:36:04.311Z</time>
      </trkpt>
      <trkpt lat="62.35042" lon="17.36544">
        <ele>50.274031</ele>
        <time>2020-10-05T09:37:10.325Z</time>
      </trkpt>
      <trkpt lat="62.34808" lon="17.36573">
        <ele>45.646538</ele>
        <time>2020-10-05T09:38:07.295Z</time>
      </trkpt>
      <trkpt lat="62.34595" lon="17.36474">
        <ele>35.262229</ele>
        <time>2020-10-05T09:38:31.323Z</time>
      </trkpt>
      <trkpt lat="62.34358" lon="17.36453">
        <ele>36.771724</ele>
        <time>2020-10-05T09:39:28.304Z</time>
      </trkpt>
      <trkpt lat="62.34141" lon="17.36404">
        <ele>41.449397</ele>
        <time>2020-10-05T09:40:26.316Z</time>
      </trkpt>
      <trkpt lat="62.33945" lon="17.36283">
        <ele>46.817662</ele>
        <time>2020-10-05T09:41:45.322Z</time>
      </trkpt>
      <trkpt lat="62.3374" lon="17.362">
        <ele>50.542501</ele>
        <time>2020-10-05T09:43:07.336Z</time>
      </trkpt>
      <trkpt lat="62.33552" lon="17.3609">
        <ele>53.439491</ele>
        <time>2020-10-05T09:44:31.308Z</time>
      </trkpt>
      <trkpt lat="62.33309" lon="17.36361">
        <ele>38.408109</ele>
        <time>2020-10-05T09:45:10.304Z</time>
      </trkpt>
      <trkpt lat="62.33099" lon="17.36498">
        <ele>30.162878</ele>
        <time>2020-10-05T09:45:59.305Z</time>
      </trkpt>
      <trkpt lat="62.32954" lon="17.36851">
        <ele>37.519065</ele>
        <time>2020-10-05T09:47:03.304Z</time>
      </trkpt>
      <trkpt lat="62.32776" lon="17.37146">
        <ele>42.565938</ele>
        <time>2020-10-05T09:48:08.305Z</time>
      </trkpt>
      <trkpt lat="62.32577" lon="17.37045">
        <ele>40.778506</ele>
        <time>2020-10-05T09:49:04.339Z</time>
      </trkpt>
      <trkpt lat="62.32401" lon="17.37067">
        <ele>36.530155</ele>
        <time>2020-10-05T09:50:07.324Z</time>
      </trkpt>
      <trkpt lat="62.32201" lon="17.37022">
        <ele>31.074836</ele>
        <time>2020-10-05T09:51:14.304Z</time>
      </trkpt>
      <trkpt lat="62.31986" lon="17.36954">
        <ele>28.565825</ele>
        <time>2020-10-05T09:52:19.313Z</time>
      </trkpt>
      <trkpt lat="62.31802" lon="17.37143">
        <ele>32.515561</ele>
        <time>2020-10-05T09:53:25.326Z</time>
      </trkpt>
      <trkpt lat="62.31617" lon="17.3723">
        <ele>37.185066</ele>
        <time>2020-10-05T09:54:41.346Z</time>
      </trkpt>
      <trkpt lat="62.31406" lon="17.37111">
        <ele>36.14079</ele>
        <time>2020-10-05T09:55:29.322Z</time>
      </trkpt>
      <trkpt lat="62.31204" lon="17.37303">
        <ele>35.28965</ele>
        <time>2020-10-05T09:56:26.320Z</time>
      </trkpt>
      <trkpt lat="62.31034" lon="17.37553">
        <ele>35.934551</ele>
        <time>2020-10-05T09:57:29.309Z</time>
      </trkpt>
      <trkpt lat="62.3083" lon="17.3761">
        <ele>35.366205</ele>
        <time>2020-10-05T09:58:38.337Z</time>
      </trkpt>
      <trkpt lat="62.30613" lon="17.37552">
        <ele>36.228829</ele>
        <time>2020-10-05T09:59:33.361Z</time>
      </trkpt>
      <trkpt lat="62.30395" lon="17.37655">
        <ele>36.178213</ele>
        <time>2020-10-05T10:00:29.311Z</time>
      </trkpt>
      <trkpt lat="62.30258" lon="17.37778">
        <ele>31.645279</ele>
        <time>2020-10-05T10:01:36.297Z</time>
      </trkpt>
      <trkpt lat="62.30055" lon="17.37768">
        <ele>31.58544</ele>
        <time>2020-10-05T10:02:38.305Z</time>
      </trkpt>
      <trkpt lat="62.30036" lon="17.38228">
        <ele>36.091554</ele>
        <time>2020-10-05T10:03:41.341Z</time>
      </trkpt>
      <trkpt lat="62.30101" lon="17.38627">
        <ele>37.023508</ele>
        <time>2020-10-05T10:05:35.321Z</time>
      </trkpt>
      <trkpt lat="62.29995" lon="17.39054">
        <ele>33.798155</ele>
        <time>2020-10-05T10:06:20.327Z</time>
      </trkpt>
      <trkpt lat="62.29805" lon="17.39174">
        <ele>32.439502</ele>
        <time>2020-10-05T10:07:28.317Z</time>
      </trkpt>
      <trkpt lat="62.29588" lon="17.39063">
        <ele>32.712086</ele>
        <time>2020-10-05T10:08:33.307Z</time>
      </trkpt>
      <trkpt lat="62.29407" lon="17.38739">
        <ele>34.308119</ele>
        <time>2020-10-05T10:09:31.330Z</time>
      </trkpt>
      <trkpt lat="62.2919" lon="17.38657">
        <ele>35.053298</ele>
        <time>2020-10-05T10:10:19.309Z</time>
      </trkpt>
      <trkpt lat="62.28998" lon="17.38838">
        <ele>37.198883</ele>
        <time>2020-10-05T10:11:25.332Z</time>
      </trkpt>
      <trkpt lat="62.28877" lon="17.39198">
        <ele>43.779736</ele>
        <time>2020-10-05T10:12:48.329Z</time>
      </trkpt>
      <trkpt lat="62.28678" lon="17.39388">
        <ele>45.467503</ele>
        <time>2020-10-05T10:13:56.312Z</time>
      </trkpt>
      <trkpt lat="62.28457" lon="17.39532">
        <ele>42.755675</ele>
        <time>2020-10-05T10:14:52.357Z</time>
      </trkpt>
      <trkpt lat="62.28217" lon="17.39465">
        <ele>37.68123</ele>
        <time>2020-10-05T10:15:50.329Z</time>
      </trkpt>
      <trkpt lat="62.27979" lon="17.39467">
        <ele>37.450427</ele>
        <time>2020-10-05T10:16:32.394Z</time>
      </trkpt>
      <trkpt lat="62.27763" lon="17.39514">
        <ele>36.484151</ele>
        <time>2020-10-05T10:17:20.316Z</time>
      </trkpt>
      <trkpt lat="62.27506" lon="17.3945">
        <ele>35.254984</ele>
        <time>2020-10-05T10:39:21.130Z</time>
      </trkpt>
      <trkpt lat="62.2729" lon="17.39582">
        <ele>37.985569</ele>
        <time>2020-10-05T10:40:15.177Z</time>
      </trkpt>
      <trkpt lat="62.27076" lon="17.39701">
        <ele>41.783151</ele>
        <time>2020-10-05T10:41:24.140Z</time>
      </trkpt>
      <trkpt lat="62.26885" lon="17.39865">
        <ele>44.622325</ele>
        <time>2020-10-05T10:42:30.145Z</time>
      </trkpt>
      <trkpt lat="62.26772" lon="17.40249">
        <ele>38.362197</ele>
        <time>2020-10-05T10:43:22.137Z</time>
      </trkpt>
      <trkpt lat="62.26734" lon="17.40681">
        <ele>40.305554</ele>
        <time>2020-10-05T10:44:28.135Z</time>
      </trkpt>
      <trkpt lat="62.26713" lon="17.41146">
        <ele>49.74064</ele>
        <time>2020-10-05T10:45:46.152Z</time>
      </trkpt>
      <trkpt lat="62.2664" lon="17.41544">
        <ele>59.012835</ele>
        <time>2020-10-05T10:47:12.154Z</time>
      </trkpt>
      <trkpt lat="62.2657" lon="17.41952">
        <ele>58.582977</ele>
        <time>2020-10-05T10:48:27.179Z</time>
      </trkpt>
      <trkpt lat="62.26557" lon="17.42437">
        <ele>56.821033</ele>
        <time>2020-10-05T10:49:14.149Z</time>
      </trkpt>
      <trkpt lat="62.26544" lon="17.42898">
        <ele>53.646599</ele>
        <time>2020-10-05T10:49:56.149Z</time>
      </trkpt>
      <trkpt lat="62.26516" lon="17.43391">
        <ele>52.686893</ele>
        <time>2020-10-05T10:50:49.146Z</time>
      </trkpt>
      <trkpt lat="62.26475" lon="17.43824">
        <ele>48.355588</ele>
        <time>2020-10-05T10:51:33.172Z</time>
      </trkpt>
      <trkpt lat="62.26426" lon="17.44298">
        <ele>45.536041</ele>
        <time>2020-10-05T10:52:14.141Z</time>
      </trkpt>
      <trkpt lat="62.26381" lon="17.44773">
        <ele>51.777426</ele>
        <time>2020-10-05T10:53:10.145Z</time>
      </trkpt>
      <trkpt lat="62.26336" lon="17.45208">
        <ele>50.828948</ele>
        <time>2020-10-05T10:53:54.181Z</time>
      </trkpt>
      <trkpt lat="62.26288" lon="17.45661">
        <ele>51.21268</ele>
        <time>2020-10-05T10:54:50.166Z</time>
      </trkpt>
      <trkpt lat="62.26182" lon="17.46032">
        <ele>56.653374</ele>
        <time>2020-10-05T10:56:16.153Z</time>
      </trkpt>
      <trkpt lat="62.26049" lon="17.46394">
        <ele>59.530205</ele>
        <time>2020-10-05T10:57:29.155Z</time>
      </trkpt>
      <trkpt lat="62.25923" lon="17.46733">
        <ele>60.694944</ele>
        <time>2020-10-05T10:58:53.173Z</time>
      </trkpt>
      <trkpt lat="62.25801" lon="17.47069">
        <ele>64.019745</ele>
        <time>2020-10-05T11:00:12.185Z</time>
      </trkpt>
      <trkpt lat="62.2566" lon="17.47387">
        <ele>64.868837</ele>
        <time>2020-10-05T11:01:00.157Z</time>
      </trkpt>
      <trkpt lat="62.25474" lon="17.47641">
        <ele>64.20207</ele>
        <time>2020-10-05T11:01:50.158Z</time>
      </trkpt>
      <trkpt lat="62.25271" lon="17.47911">
        <ele>64.220337</ele>
        <time>2020-10-05T11:02:47.166Z</time>
      </trkpt>
      <trkpt lat="62.25071" lon="17.48169">
        <ele>60.531019</ele>
        <time>2020-10-05T11:03:42.148Z</time>
      </trkpt>
      <trkpt lat="62.24871" lon="17.48431">
        <ele>59.594363</ele>
        <time>2020-10-05T11:04:38.189Z</time>
      </trkpt>
      <trkpt lat="62.24676" lon="17.48694">
        <ele>60.40228</ele>
        <time>2020-10-05T11:05:22.146Z</time>
      </trkpt>
      <trkpt lat="62.2457" lon="17.49115">
        <ele>56.337949</ele>
        <time>2020-10-05T11:06:04.189Z</time>
      </trkpt>
      <trkpt lat="62.24545" lon="17.49581">
        <ele>57.174068</ele>
        <time>2020-10-05T11:06:54.143Z</time>
      </trkpt>
      <trkpt lat="62.24516" lon="17.50097">
        <ele>58.278791</ele>
        <time>2020-10-05T11:07:53.150Z</time>
      </trkpt>
      <trkpt lat="62.24484" lon="17.50642">
        <ele>56.606838</ele>
        <time>2020-10-05T11:08:53.180Z</time>
      </trkpt>
      <trkpt lat="62.24438" lon="17.51158">
        <ele>58.065064</ele>
        <time>2020-10-05T11:09:53.155Z</time>
      </trkpt>
      <trkpt lat="62.24329" lon="17.51583">
        <ele>53.684373</ele>
        <time>2020-10-05T11:10:46.178Z</time>
      </trkpt>
      <trkpt lat="62.24204" lon="17.52044">
        <ele>50.466744</ele>
        <time>2020-10-05T11:11:36.174Z</time>
      </trkpt>
      <trkpt lat="62.24132" lon="17.5256">
        <ele>35.962536</ele>
        <time>2020-10-05T11:12:10.197Z</time>
      </trkpt>
      <trkpt lat="62.23926" lon="17.52413">
        <ele>33.27172</ele>
        <time>2020-10-05T11:13:07.180Z</time>
      </trkpt>
      <trkpt lat="62.23778" lon="17.52092">
        <ele>40.278588</ele>
        <time>2020-10-05T11:14:12.164Z</time>
      </trkpt>
      <trkpt lat="62.23647" lon="17.51711">
        <ele>39.045001</ele>
        <time>2020-10-05T11:15:16.172Z</time>
      </trkpt>
      <trkpt lat="62.23484" lon="17.51282">
        <ele>37.374624</ele>
        <time>2020-10-05T11:15:58.174Z</time>
      </trkpt>
      <trkpt lat="62.23314" lon="17.51028">
        <ele>39.990704</ele>
        <time>2020-10-05T11:17:00.158Z</time>
      </trkpt>
      <trkpt lat="62.23193" lon="17.50618">
        <ele>34.11686</ele>
        <time>2020-10-05T11:17:40.175Z</time>
      </trkpt>
      <trkpt lat="62.2302" lon="17.50316">
        <ele>35.29843</ele>
        <time>2020-10-05T11:18:34.156Z</time>
      </trkpt>
      <trkpt lat="62.22844" lon="17.4994">
        <ele>36.810731</ele>
        <time>2020-10-05T11:19:27.164Z</time>
      </trkpt>
      <trkpt lat="62.22628" lon="17.49664">
        <ele>41.318205</ele>
        <time>2020-10-05T11:20:33.154Z</time>
      </trkpt>
      <trkpt lat="62.22398" lon="17.49644">
        <ele>33.282719</ele>
        <time>2020-10-05T11:21:18.159Z</time>
      </trkpt>
      <trkpt lat="62.22201" lon="17.49504">
        <ele>34.788536</ele>
        <time>2020-10-05T11:22:21.160Z</time>
      </trkpt>
      <trkpt lat="62.21984" lon="17.49338">
        <ele>35.129532</ele>
        <time>2020-10-05T11:23:09.168Z</time>
      </trkpt>
      <trkpt lat="62.21777" lon="17.49336">
        <ele>42.832819</ele>
        <time>2020-10-05T11:24:33.159Z</time>
      </trkpt>
      <trkpt lat="62.21567" lon="17.49346">
        <ele>48.110032</ele>
        <time>2020-10-05T11:25:46.195Z</time>
      </trkpt>
      <trkpt lat="62.21342" lon="17.4936">
        <ele>43.448964</ele>
        <time>2020-10-05T11:26:26.146Z</time>
      </trkpt>
      <trkpt lat="62.21112" lon="17.49371">
        <ele>39.561819</ele>
        <time>2020-10-05T11:27:09.158Z</time>
      </trkpt>
      <trkpt lat="62.20857" lon="17.49467">
        <ele>30.624119</ele>
        <time>2020-10-05T11:27:52.158Z</time>
      </trkpt>
      <trkpt lat="62.20645" lon="17.49422">
        <ele>31.373514</ele>
        <time>2020-10-05T11:28:32.158Z</time>
      </trkpt>
      <trkpt lat="62.20438" lon="17.49388">
        <ele>28.587311</ele>
        <time>2020-10-05T11:29:12.162Z</time>
      </trkpt>
      <trkpt lat="62.20215" lon="17.49482">
        <ele>28.480341</ele>
        <time>2020-10-05T11:29:57.158Z</time>
      </trkpt>
      <trkpt lat="62.19988" lon="17.49562">
        <ele>35.131461</ele>
        <time>2020-10-05T11:30:52.169Z</time>
      </trkpt>
      <trkpt lat="62.19799" lon="17.49782">
        <ele>36.619096</ele>
        <time>2020-10-05T11:31:46.158Z</time>
      </trkpt>
      <trkpt lat="62.19618" lon="17.49954">
        <ele>39.657386</ele>
        <time>2020-10-05T11:33:14.178Z</time>
      </trkpt>
      <trkpt lat="62.19338" lon="17.50069">
        <ele>29.598329</ele>
        <time>2020-10-05T11:34:10.163Z</time>
      </trkpt>
      <trkpt lat="62.19084" lon="17.50167">
        <ele>29.228496</ele>
        <time>2020-10-05T11:34:55.177Z</time>
      </trkpt>
      <trkpt lat="62.18878" lon="17.50247">
        <ele>35.642698</ele>
        <time>2020-10-05T11:35:49.168Z</time>
      </trkpt>
      <trkpt lat="62.18659" lon="17.50262">
        <ele>38.567909</ele>
        <time>2020-10-05T11:36:48.162Z</time>
      </trkpt>
      <trkpt lat="62.18423" lon="17.50251">
        <ele>37.812688</ele>
        <time>2020-10-05T11:37:50.196Z</time>
      </trkpt>
      <trkpt lat="62.18213" lon="17.50052">
        <ele>36.144531</ele>
        <time>2020-10-05T11:38:42.212Z</time>
      </trkpt>
      <trkpt lat="62.18011" lon="17.49828">
        <ele>36.937582</ele>
        <time>2020-10-05T11:39:42.177Z</time>
      </trkpt>
      <trkpt lat="62.17831" lon="17.49627">
        <ele>42.409386</ele>
        <time>2020-10-05T11:40:54.172Z</time>
      </trkpt>
      <trkpt lat="62.17627" lon="17.49454">
        <ele>48.370397</ele>
        <time>2020-10-05T11:42:29.161Z</time>
      </trkpt>
      <trkpt lat="62.17432" lon="17.4931">
        <ele>46.704725</ele>
        <time>2020-10-05T11:43:14.153Z</time>
      </trkpt>
      <trkpt lat="62.17221" lon="17.49035">
        <ele>38.757817</ele>
        <time>2020-10-05T11:43:55.163Z</time>
      </trkpt>
      <trkpt lat="62.17038" lon="17.4877">
        <ele>33.561821</ele>
        <time>2020-10-05T11:44:37.213Z</time>
      </trkpt>
      <trkpt lat="62.16868" lon="17.48553">
        <ele>38.943142</ele>
        <time>2020-10-05T11:45:17.153Z</time>
      </trkpt>
      <trkpt lat="62.16662" lon="17.48442">
        <ele>37.634353</ele>
        <time>2020-10-05T11:46:05.191Z</time>
      </trkpt>
      <trkpt lat="62.16435" lon="17.48407">
        <ele>42.836756</ele>
        <time>2020-10-05T11:47:10.201Z</time>
      </trkpt>
      <trkpt lat="62.1636" lon="17.48003">
        <ele>53.286024</ele>
        <time>2020-10-05T11:48:56.159Z</time>
      </trkpt>
      <trkpt lat="62.16413" lon="17.47571">
        <ele>59.492179</ele>
        <time>2020-10-05T11:50:16.207Z</time>
      </trkpt>
      <trkpt lat="62.16398" lon="17.47168">
        <ele>60.023202</ele>
        <time>2020-10-05T11:51:44.183Z</time>
      </trkpt>
      <trkpt lat="62.16323" lon="17.46753">
        <ele>58.280014</ele>
        <time>2020-10-05T11:52:53.202Z</time>
      </trkpt>
      <trkpt lat="62.16249" lon="17.46333">
        <ele>66.083435</ele>
        <time>2020-10-05T11:54:07.184Z</time>
      </trkpt>
      <trkpt lat="62.16162" lon="17.45947">
        <ele>75.903128</ele>
        <time>2020-10-05T11:57:36.201Z</time>
      </trkpt>
      <trkpt lat="62.16057" lon="17.45579">
        <ele>81.652174</ele>
        <time>2020-10-05T11:59:01.217Z</time>
      </trkpt>
      <trkpt lat="62.15919" lon="17.45263">
        <ele>84.796924</ele>
        <time>2020-10-05T12:00:26.165Z</time>
      </trkpt>
      <trkpt lat="62.15778" lon="17.44948">
        <ele>90.355012</ele>
        <time>2020-10-05T12:02:32.175Z</time>
      </trkpt>
      <trkpt lat="62.1564" lon="17.44652">
        <ele>95.823427</ele>
        <time>2020-10-05T12:04:15.201Z</time>
      </trkpt>
      <trkpt lat="62.15614" lon="17.44316">
        <ele>100.646087</ele>
        <time>2020-10-05T12:05:29.185Z</time>
      </trkpt>
      <trkpt lat="62.15601" lon="17.43928">
        <ele>106.161652</ele>
        <time>2020-10-05T12:07:06.216Z</time>
      </trkpt>
      <trkpt lat="62.15547" lon="17.43479">
        <ele>111.822667</ele>
        <time>2020-10-05T12:08:28.189Z</time>
      </trkpt>
      <trkpt lat="62.1541" lon="17.43191">
        <ele>111.96194</ele>
        <time>2020-10-05T12:09:44.164Z</time>
      </trkpt>
      <trkpt lat="62.15233" lon="17.42967">
        <ele>116.23375</ele>
        <time>2020-10-05T12:10:49.209Z</time>
      </trkpt>
      <trkpt lat="62.15074" lon="17.4267">
        <ele>114.026253</ele>
        <time>2020-10-05T12:11:42.190Z</time>
      </trkpt>
      <trkpt lat="62.14849" lon="17.42619">
        <ele>107.45301</ele>
        <time>2020-10-05T12:12:27.179Z</time>
      </trkpt>
      <trkpt lat="62.14662" lon="17.42378">
        <ele>105.992843</ele>
        <time>2020-10-05T12:13:23.181Z</time>
      </trkpt>
      <trkpt lat="62.14509" lon="17.42093">
        <ele>107.3163</ele>
        <time>2020-10-05T12:14:09.192Z</time>
      </trkpt>
      <trkpt lat="62.14435" lon="17.41695">
        <ele>108.486958</ele>
        <time>2020-10-05T12:15:05.216Z</time>
      </trkpt>
      <trkpt lat="62.14349" lon="17.41309">
        <ele>124.265409</ele>
        <time>2020-10-05T12:16:28.186Z</time>
      </trkpt>
      <trkpt lat="62.14162" lon="17.41164">
        <ele>117.73773</ele>
        <time>2020-10-05T12:17:28.175Z</time>
      </trkpt>
      <trkpt lat="62.1399" lon="17.41483">
        <ele>108.992322</ele>
        <time>2020-10-05T12:18:21.188Z</time>
      </trkpt>
      <trkpt lat="62.13776" lon="17.4161">
        <ele>103.547737</ele>
        <time>2020-10-05T12:19:30.164Z</time>
      </trkpt>
      <trkpt lat="62.13537" lon="17.41478">
        <ele>103.085969</ele>
        <time>2020-10-05T12:20:28.181Z</time>
      </trkpt>
      <trkpt lat="62.13327" lon="17.41521">
        <ele>99.643405</ele>
        <time>2020-10-05T12:21:26.168Z</time>
      </trkpt>
      <trkpt lat="62.13119" lon="17.41439">
        <ele>111.99619</ele>
        <time>2020-10-05T12:23:06.197Z</time>
      </trkpt>
      <trkpt lat="62.12972" lon="17.41751">
        <ele>113.844178</ele>
        <time>2020-10-05T12:23:54.177Z</time>
      </trkpt>
      <trkpt lat="62.12786" lon="17.41901">
        <ele>115.81068</ele>
        <time>2020-10-05T12:24:56.188Z</time>
      </trkpt>
      <trkpt lat="62.12603" lon="17.4207">
        <ele>117.343995</ele>
        <time>2020-10-05T12:26:03.183Z</time>
      </trkpt>
      <trkpt lat="62.1237" lon="17.42208">
        <ele>101.317982</ele>
        <time>2020-10-05T12:26:53.185Z</time>
      </trkpt>
      <trkpt lat="62.12156" lon="17.42256">
        <ele>88.672511</ele>
        <time>2020-10-05T12:27:35.193Z</time>
      </trkpt>
      <trkpt lat="62.11995" lon="17.42664">
        <ele>79.059732</ele>
        <time>2020-10-05T12:28:17.196Z</time>
      </trkpt>
      <trkpt lat="62.11754" lon="17.43009">
        <ele>67.487357</ele>
        <time>2020-10-05T12:28:54.210Z</time>
      </trkpt>
      <trkpt lat="62.11548" lon="17.43409">
        <ele>60.414682</ele>
        <time>2020-10-05T12:29:34.175Z</time>
      </trkpt>
      <trkpt lat="62.1137" lon="17.43675">
        <ele>61.203508</ele>
        <time>2020-10-05T12:30:19.182Z</time>
      </trkpt>
      <trkpt lat="62.11158" lon="17.43842">
        <ele>74.73819</ele>
        <time>2020-10-05T12:31:06.181Z</time>
      </trkpt>
      <trkpt lat="62.10963" lon="17.44052">
        <ele>81.727041</ele>
        <time>2020-10-05T12:31:54.195Z</time>
      </trkpt>
      <trkpt lat="62.1083" lon="17.44393">
        <ele>71.537693</ele>
        <time>2020-10-05T12:33:00.179Z</time>
      </trkpt>
      <trkpt lat="62.10749" lon="17.44791">
        <ele>66.59368</ele>
        <time>2020-10-05T12:34:24.183Z</time>
      </trkpt>
      <trkpt lat="62.1062" lon="17.45036">
        <ele>55.080303</ele>
        <time>2020-10-05T12:35:11.176Z</time>
      </trkpt>
      <trkpt lat="62.10402" lon="17.4491">
        <ele>51.865202</ele>
        <time>2020-10-05T12:36:07.187Z</time>
      </trkpt>
      <trkpt lat="62.1025" lon="17.446">
        <ele>60.343336</ele>
        <time>2020-10-05T12:37:22.192Z</time>
      </trkpt>
      <trkpt lat="62.10055" lon="17.44514">
        <ele>65.936925</ele>
        <time>2020-10-05T12:38:23.175Z</time>
      </trkpt>
      <trkpt lat="62.09952" lon="17.44147">
        <ele>73.827287</ele>
        <time>2020-10-05T12:40:24.219Z</time>
      </trkpt>
      <trkpt lat="62.09844" lon="17.43782">
        <ele>82.847573</ele>
        <time>2020-10-05T12:41:52.181Z</time>
      </trkpt>
      <trkpt lat="62.0966" lon="17.43581">
        <ele>81.451463</ele>
        <time>2020-10-05T12:43:01.196Z</time>
      </trkpt>
      <trkpt lat="62.09565" lon="17.43249">
        <ele>89.350126</ele>
        <time>2020-10-05T12:44:48.207Z</time>
      </trkpt>
      <trkpt lat="62.09386" lon="17.42923">
        <ele>91.82079</ele>
        <time>2020-10-05T12:46:01.197Z</time>
      </trkpt>
      <trkpt lat="62.09156" lon="17.42913">
        <ele>86.152073</ele>
        <time>2020-10-05T12:46:44.191Z</time>
      </trkpt>
      <trkpt lat="62.08928" lon="17.42829">
        <ele>86.644634</ele>
        <time>2020-10-05T12:47:25.191Z</time>
      </trkpt>
      <trkpt lat="62.08666" lon="17.42873">
        <ele>77.707544</ele>
        <time>2020-10-05T12:48:09.224Z</time>
      </trkpt>
      <trkpt lat="62.08411" lon="17.42866">
        <ele>71.283698</ele>
        <time>2020-10-05T12:48:47.214Z</time>
      </trkpt>
      <trkpt lat="62.08197" lon="17.42618">
        <ele>65.106835</ele>
        <time>2020-10-05T12:49:29.234Z</time>
      </trkpt>
      <trkpt lat="62.08059" lon="17.42946">
        <ele>57.078948</ele>
        <time>2020-10-05T12:50:10.191Z</time>
      </trkpt>
      <trkpt lat="62.07933" lon="17.43382">
        <ele>52.111141</ele>
        <time>2020-10-05T12:50:50.226Z</time>
      </trkpt>
      <trkpt lat="62.0774" lon="17.43217">
        <ele>62.460403</ele>
        <time>2020-10-05T12:52:01.213Z</time>
      </trkpt>
      <trkpt lat="62.07611" lon="17.4291">
        <ele>75.413028</ele>
        <time>2020-10-05T12:53:53.174Z</time>
      </trkpt>
      <trkpt lat="62.07406" lon="17.42603">
        <ele>71.327493</ele>
        <time>2020-10-05T12:55:00.187Z</time>
      </trkpt>
      <trkpt lat="62.0717" lon="17.4249">
        <ele>59.235296</ele>
        <time>2020-10-05T12:55:32.199Z</time>
      </trkpt>
      <trkpt lat="62.06938" lon="17.42491">
        <ele>49.256488</ele>
        <time>2020-10-05T12:55:56.180Z</time>
      </trkpt>
      <trkpt lat="62.06727" lon="17.42677">
        <ele>46.545357</ele>
        <time>2020-10-05T12:56:44.196Z</time>
      </trkpt>
      <trkpt lat="62.06523" lon="17.42478">
        <ele>46.123182</ele>
        <time>2020-10-05T12:57:25.193Z</time>
      </trkpt>
      <trkpt lat="62.06413" lon="17.42073">
        <ele>43.645564</ele>
        <time>2020-10-05T12:58:30.167Z</time>
      </trkpt>
      <trkpt lat="62.06385" lon="17.4161">
        <ele>37.313288</ele>
        <time>2020-10-05T12:59:27.170Z</time>
      </trkpt>
      <trkpt lat="62.06448" lon="17.41154">
        <ele>41.992142</ele>
        <time>2020-10-05T13:00:26.220Z</time>
      </trkpt>
      <trkpt lat="62.06508" lon="17.4071">
        <ele>44.345911</ele>
        <time>2020-10-05T13:01:26.186Z</time>
      </trkpt>
      <trkpt lat="62.06573" lon="17.40322">
        <ele>45.471789</ele>
        <time>2020-10-05T13:02:25.196Z</time>
      </trkpt>
      <trkpt lat="62.06661" lon="17.39895">
        <ele>52.311515</ele>
        <time>2020-10-05T13:03:42.217Z</time>
      </trkpt>
      <trkpt lat="62.06598" lon="17.39516">
        <ele>60.03605</ele>
        <time>2020-10-05T13:05:02.208Z</time>
      </trkpt>
      <trkpt lat="62.06545" lon="17.39092">
        <ele>52.61802</ele>
        <time>2020-10-05T13:05:57.182Z</time>
      </trkpt>
      <trkpt lat="62.06347" lon="17.38911">
        <ele>45.123294</ele>
        <time>2020-10-05T13:06:45.180Z</time>
      </trkpt>
      <trkpt lat="62.06249" lon="17.38654">
        <ele>51.096473</ele>
        <time>2020-10-05T13:08:15.211Z</time>
      </trkpt>
      <trkpt lat="62.06314" lon="17.38207">
        <ele>54.270804</ele>
        <time>2020-10-05T13:09:19.214Z</time>
      </trkpt>
      <trkpt lat="62.06357" lon="17.37756">
        <ele>54.128048</ele>
        <time>2020-10-05T13:10:22.203Z</time>
      </trkpt>
      <trkpt lat="62.0641" lon="17.373">
        <ele>57.024234</ele>
        <time>2020-10-05T13:11:35.206Z</time>
      </trkpt>
      <trkpt lat="62.06438" lon="17.36845">
        <ele>60.114145</ele>
        <time>2020-10-05T13:12:38.191Z</time>
      </trkpt>
      <trkpt lat="62.06433" lon="17.36375">
        <ele>52.74676</ele>
        <time>2020-10-05T13:13:22.177Z</time>
      </trkpt>
      <trkpt lat="62.06419" lon="17.35933">
        <ele>52.648196</ele>
        <time>2020-10-05T13:14:16.188Z</time>
      </trkpt>
      <trkpt lat="62.06422" lon="17.35456">
        <ele>65.177307</ele>
        <time>2020-10-05T13:15:33.207Z</time>
      </trkpt>
      <trkpt lat="62.06304" lon="17.3514">
        <ele>72.865478</ele>
        <time>2020-10-05T13:17:18.179Z</time>
      </trkpt>
      <trkpt lat="62.06362" lon="17.34746">
        <ele>77.598393</ele>
        <time>2020-10-05T13:19:03.213Z</time>
      </trkpt>
      <trkpt lat="62.06461" lon="17.34347">
        <ele>79.52363</ele>
        <time>2020-10-05T13:20:19.188Z</time>
      </trkpt>
      <trkpt lat="62.06483" lon="17.33879">
        <ele>85.34049</ele>
        <time>2020-10-05T13:21:43.210Z</time>
      </trkpt>
      <trkpt lat="62.06568" lon="17.33479">
        <ele>87.879728</ele>
        <time>2020-10-05T13:23:01.178Z</time>
      </trkpt>
      <trkpt lat="62.06645" lon="17.33073">
        <ele>91.027282</ele>
        <time>2020-10-05T13:24:06.196Z</time>
      </trkpt>
      <trkpt lat="62.06731" lon="17.32637">
        <ele>93.803523</ele>
        <time>2020-10-05T13:24:54.182Z</time>
      </trkpt>
      <trkpt lat="62.06709" lon="17.32172">
        <ele>99.162803</ele>
        <time>2020-10-05T13:25:45.226Z</time>
      </trkpt>
      <trkpt lat="62.06675" lon="17.31695">
        <ele>97.892166</ele>
        <time>2020-10-05T13:26:46.189Z</time>
      </trkpt>
      <trkpt lat="62.06662" lon="17.31241">
        <ele>94.821479</ele>
        <time>2020-10-05T13:27:41.189Z</time>
      </trkpt>
      <trkpt lat="62.0668" lon="17.30806">
        <ele>92.117488</ele>
        <time>2020-10-05T13:29:02.249Z</time>
      </trkpt>
      <trkpt lat="62.06633" lon="17.3034">
        <ele>93.740493</ele>
        <time>2020-10-05T13:30:20.229Z</time>
      </trkpt>
      <trkpt lat="62.06545" lon="17.29943">
        <ele>91.697237</ele>
        <time>2020-10-05T13:31:02.177Z</time>
      </trkpt>
      <trkpt lat="62.06572" lon="17.29469">
        <ele>89.5873</ele>
        <time>2020-10-05T13:31:55.215Z</time>
      </trkpt>
      <trkpt lat="62.06665" lon="17.29091">
        <ele>96.131787</ele>
        <time>2020-10-05T13:33:11.202Z</time>
      </trkpt>
      <trkpt lat="62.06767" lon="17.28713">
        <ele>102.002318</ele>
        <time>2020-10-05T13:34:37.273Z</time>
      </trkpt>
      <trkpt lat="62.06734" lon="17.28379">
        <ele>103.257348</ele>
        <time>2020-10-05T13:35:40.190Z</time>
      </trkpt>
      <trkpt lat="62.06547" lon="17.28095">
        <ele>99.647054</ele>
        <time>2020-10-05T13:36:24.200Z</time>
      </trkpt>
      <trkpt lat="62.06367" lon="17.27738">
        <ele>88.10346</ele>
        <time>2020-10-05T13:36:55.195Z</time>
      </trkpt>
      <trkpt lat="62.06171" lon="17.27317">
        <ele>80.792161</ele>
        <time>2020-10-05T13:37:31.214Z</time>
      </trkpt>
      <trkpt lat="62.06021" lon="17.27">
        <ele>83.816347</ele>
        <time>2020-10-05T13:38:50.203Z</time>
      </trkpt>
      <trkpt lat="62.05836" lon="17.2677">
        <ele>83.921829</ele>
        <time>2020-10-05T13:39:49.240Z</time>
      </trkpt>
      <trkpt lat="62.0567" lon="17.26556">
        <ele>78.85963</ele>
        <time>2020-10-05T13:40:32.189Z</time>
      </trkpt>
      <trkpt lat="62.05553" lon="17.26167">
        <ele>78.046322</ele>
        <time>2020-10-05T13:41:25.214Z</time>
      </trkpt>
      <trkpt lat="62.05352" lon="17.2591">
        <ele>76.426643</ele>
        <time>2020-10-05T13:42:08.196Z</time>
      </trkpt>
      <trkpt lat="62.05158" lon="17.2597">
        <ele>87.868827</ele>
        <time>2020-10-05T13:43:48.243Z</time>
      </trkpt>
      <trkpt lat="62.04976" lon="17.25865">
        <ele>95.489783</ele>
        <time>2020-10-05T13:45:24.199Z</time>
      </trkpt>
      <trkpt lat="62.04908" lon="17.25389">
        <ele>81.874897</ele>
        <time>2020-10-05T13:46:06.192Z</time>
      </trkpt>
      <trkpt lat="62.04944" lon="17.24911">
        <ele>78.790402</ele>
        <time>2020-10-05T13:47:03.211Z</time>
      </trkpt>
    </trkseg>
  </trk>
</gpx>